createdAt,value
2023-03-06T00:00:44.571Z,0.52
2023-03-06T00:04:44.653Z,0.53
2023-03-06T00:08:44.777Z,0.53
2023-03-06T00:12:44.893Z,0.53
2023-03-06T00:16:45.043Z,0.53
2023-03-06T00:20:45.187Z,0.53
2023-03-06T00:24:45.311Z,0.53
2023-03-06T00:28:45.425Z,0.52
2023-03-06T00:32:45.588Z,0.52
2023-03-06T00:36:45.695Z,0.52
2023-03-06T00:40:45.816Z,0.53
2023-03-06T00:44:45.958Z,0.51
2023-03-06T00:48:46.113Z,0.54
2023-03-06T00:52:46.259Z,0.52
2023-03-06T00:56:46.438Z,0.53
2023-03-06T01:00:46.686Z,0.53
2023-03-06T01:04:46.692Z,0.53
2023-03-06T01:08:46.864Z,0.53
2023-03-06T01:12:47.049Z,0.52
2023-03-06T01:16:47.249Z,0.53
2023-03-06T01:20:47.337Z,0.53
2023-03-06T01:24:47.560Z,0.52
2023-03-06T01:28:47.785Z,0.54
2023-03-06T01:32:47.927Z,0.52
2023-03-06T01:36:48.057Z,0.54
2023-03-06T01:40:48.281Z,0.52
2023-03-06T01:44:48.452Z,0.54
2023-03-06T01:48:48.630Z,0.53
2023-03-06T01:52:48.811Z,0.52
2023-03-06T01:56:48.984Z,0.54
2023-03-06T02:00:49.302Z,0.52
2023-03-06T02:04:49.364Z,0.53
2023-03-06T02:08:49.516Z,0.53
2023-03-06T02:12:49.719Z,0.52
2023-03-06T02:16:49.914Z,0.53
2023-03-06T02:20:50.081Z,0.52
2023-03-06T02:24:50.259Z,0.52
2023-03-06T02:28:50.485Z,0.54
2023-03-06T02:32:50.674Z,0.53
2023-03-06T02:36:50.789Z,0.52
2023-03-06T02:40:50.981Z,0.52
2023-03-06T02:44:51.111Z,0.51
2023-03-06T02:48:51.312Z,0.54
2023-03-06T02:52:51.509Z,0.52
2023-03-06T02:56:51.666Z,0.54
2023-03-06T03:00:51.929Z,0.52
2023-03-06T03:04:52.148Z,0.52
2023-03-06T03:08:52.227Z,0.51
2023-03-06T03:12:52.347Z,0.54
2023-03-06T03:16:52.472Z,0.53
2023-03-06T03:20:52.652Z,0.52
2023-03-06T03:24:52.996Z,0.53
2023-03-06T03:28:53.064Z,0.53
2023-03-06T03:32:53.265Z,0.51
2023-03-06T03:36:53.427Z,0.52
2023-03-06T03:40:53.612Z,0.51
2023-03-06T03:44:53.764Z,0.52
2023-03-06T03:48:53.914Z,0.52
2023-03-06T03:52:54.086Z,0.52
2023-03-06T03:56:54.255Z,0.53
2023-03-06T04:00:54.590Z,0.51
2023-03-06T04:04:54.721Z,0.52
2023-03-06T04:08:54.706Z,0.53
2023-03-06T04:12:54.882Z,0.52
2023-03-06T04:16:55.053Z,0.51
2023-03-06T04:20:55.222Z,0.52
2023-03-06T04:24:55.386Z,0.52
2023-03-06T04:28:55.548Z,0.53
2023-03-06T04:32:55.702Z,0.52
2023-03-06T04:36:55.816Z,0.53
2023-03-06T04:40:55.998Z,0.51
2023-03-06T04:44:56.299Z,0.51
2023-03-06T04:48:56.364Z,0.51
2023-03-06T04:52:56.599Z,0.53
2023-03-06T04:56:56.737Z,0.51
2023-03-06T05:00:56.946Z,0.51
2023-03-06T05:04:57.111Z,0.51
2023-03-06T05:08:57.249Z,0.50
2023-03-06T05:12:57.242Z,0.51
2023-03-06T05:16:57.179Z,0.51
2023-03-06T05:20:57.168Z,0.51
2023-03-06T05:24:57.125Z,0.53
2023-03-06T05:28:57.053Z,0.51
2023-03-06T05:32:57.058Z,0.54
2023-03-06T05:36:56.986Z,0.54
2023-03-06T05:40:56.961Z,0.55
2023-03-06T05:44:56.899Z,0.54
2023-03-06T05:48:57.142Z,0.55
2023-03-06T05:52:57.076Z,0.55
2023-03-06T05:56:57.072Z,0.55
2023-03-06T06:00:56.989Z,0.56
2023-03-06T06:04:56.956Z,0.56
2023-03-06T06:08:56.968Z,0.56
2023-03-06T06:12:56.931Z,0.55
2023-03-06T06:16:56.859Z,0.54
2023-03-06T06:20:56.848Z,0.54
2023-03-06T06:24:56.720Z,0.54
2023-03-06T06:28:59.050Z,0.54
2023-03-06T06:32:56.850Z,0.56
2023-03-06T06:36:56.675Z,0.60
2023-03-06T06:41:29.177Z,0.60
2023-03-06T06:44:57.551Z,0.62
2023-03-06T06:48:56.549Z,0.61
2023-03-06T06:52:56.566Z,0.61
2023-03-06T06:56:56.579Z,0.58
2023-03-06T07:00:56.464Z,0.60
2023-03-06T07:05:04.305Z,0.56
2023-03-06T07:08:57.572Z,0.60
2023-03-06T07:12:56.416Z,0.99
2023-03-06T07:16:56.296Z,1.12
2023-03-06T07:20:56.296Z,1.26
2023-03-06T07:24:56.204Z,1.10
2023-03-06T07:28:56.207Z,1.02
2023-03-06T07:32:56.425Z,0.96
2023-03-06T07:36:56.367Z,0.93
2023-03-06T07:40:56.361Z,0.81
2023-03-06T07:44:56.364Z,1.11
2023-03-06T07:48:56.253Z,0.96
2023-03-06T07:52:56.311Z,1.45
2023-03-06T07:56:56.215Z,1.24
2023-03-06T08:00:56.215Z,1.25
2023-03-06T08:04:56.158Z,1.57
2023-03-06T08:08:56.168Z,1.48
2023-03-06T08:12:56.058Z,1.37
2023-03-06T08:16:56.010Z,1.27
2023-03-06T08:20:56.004Z,1.60
2023-03-06T08:24:55.891Z,1.83
2023-03-06T08:28:55.952Z,1.50
2023-03-06T08:32:56.261Z,1.44
2023-03-06T08:36:55.841Z,0.72
2023-03-06T08:40:55.824Z,0.75
2023-03-06T08:44:55.758Z,0.71
2023-03-06T08:48:55.825Z,0.59
2023-03-06T08:52:55.951Z,0.63
2023-03-06T08:56:56.172Z,0.61
2023-03-06T09:00:56.345Z,0.59
2023-03-06T09:04:56.364Z,0.59
2023-03-06T09:08:56.467Z,0.55
2023-03-06T09:12:56.603Z,0.57
2023-03-06T09:16:56.779Z,0.55
2023-03-06T09:20:56.775Z,0.56
2023-03-06T09:24:56.821Z,0.55
2023-03-06T09:28:56.884Z,0.53
2023-03-06T09:32:56.948Z,0.52
2023-03-06T09:36:57.657Z,0.52
2023-03-06T09:40:57.268Z,0.54
2023-03-06T09:44:57.323Z,0.57
2023-03-06T09:48:59.607Z,0.54
2023-03-06T09:53:00.103Z,0.55
2023-03-06T09:56:57.592Z,0.54
2023-03-06T10:00:57.526Z,0.56
2023-03-06T10:04:57.477Z,0.61
2023-03-06T10:08:59.554Z,0.64
2023-03-06T10:12:57.571Z,0.64
2023-03-06T10:16:57.666Z,0.64
2023-03-06T10:21:02.553Z,0.67
2023-03-06T10:24:58.858Z,0.68
2023-03-06T10:28:57.902Z,0.69
2023-03-06T10:32:58.048Z,0.71
2023-03-06T10:36:58.209Z,0.70
2023-03-06T10:40:58.357Z,3.27
2023-03-06T10:44:58.243Z,5.49
2023-03-06T10:48:58.282Z,2.60
2023-03-06T10:52:58.319Z,2.85
2023-03-06T10:56:58.431Z,2.12
2023-03-06T11:00:58.567Z,1.82
2023-03-06T11:04:58.545Z,1.59
2023-03-06T11:09:06.800Z,1.49
2023-03-06T11:12:58.485Z,1.51
2023-03-06T11:16:58.711Z,1.36
2023-03-06T11:20:58.896Z,1.38
2023-03-06T11:24:59.069Z,1.22
2023-03-06T11:28:59.064Z,1.09
2023-03-06T11:32:58.977Z,1.00
2023-03-06T11:36:58.932Z,0.94
2023-03-06T11:40:58.966Z,0.91
2023-03-06T11:44:59.923Z,0.85
2023-03-06T11:48:58.809Z,0.84
2023-03-06T11:52:58.911Z,0.81
2023-03-06T11:56:58.763Z,0.78
2023-03-06T12:00:58.861Z,0.73
2023-03-06T12:04:59.139Z,0.73
2023-03-06T12:08:59.250Z,0.74
2023-03-06T12:12:59.255Z,0.76
2023-03-06T12:16:59.206Z,0.77
2023-03-06T12:20:59.150Z,0.77
2023-03-06T12:24:59.119Z,0.76
2023-03-06T12:28:59.133Z,0.75
2023-03-06T12:32:59.102Z,0.75
2023-03-06T12:36:59.038Z,0.76
2023-03-06T12:40:58.981Z,0.77
2023-03-06T12:44:58.958Z,0.78
2023-03-06T12:48:58.905Z,0.78
2023-03-06T12:52:59.036Z,0.79
2023-03-06T12:56:59.166Z,0.79
2023-03-06T13:01:04.305Z,0.79
2023-03-06T13:05:00.397Z,0.80
2023-03-06T13:08:59.287Z,0.80
2023-03-06T13:12:59.321Z,0.75
2023-03-06T13:16:59.681Z,0.71
2023-03-06T13:20:59.853Z,0.72
2023-03-06T13:25:03.608Z,0.70
2023-03-06T13:29:01.020Z,0.69
2023-03-06T13:32:59.866Z,0.75
2023-03-06T13:37:00.062Z,0.73
2023-03-06T13:41:00.285Z,0.75
2023-03-06T13:45:00.416Z,0.72
2023-03-06T13:49:00.568Z,0.72
2023-03-06T13:53:00.773Z,0.71
2023-03-06T13:57:00.910Z,0.71
2023-03-06T14:01:01.207Z,0.66
2023-03-06T14:05:01.212Z,0.75
2023-03-06T14:09:01.388Z,0.70
2023-03-06T14:13:01.417Z,0.77
2023-03-06T14:17:03.553Z,0.77
2023-03-06T14:21:01.473Z,0.74
2023-03-06T14:25:01.431Z,0.75
2023-03-06T14:29:01.454Z,0.77
2023-03-06T14:33:01.395Z,0.77
2023-03-06T14:37:01.391Z,0.77
2023-03-06T14:41:01.364Z,0.74
2023-03-06T14:45:01.267Z,0.74
2023-03-06T14:49:01.294Z,0.72
2023-03-06T14:53:01.271Z,0.67
2023-03-06T14:57:01.156Z,0.66
2023-03-06T15:01:01.452Z,0.66
2023-03-06T15:05:01.104Z,0.67
2023-03-06T15:09:01.085Z,0.67
2023-03-06T15:13:01.065Z,0.65
2023-03-06T15:17:00.988Z,0.68
2023-03-06T15:21:00.995Z,0.63
2023-03-06T15:25:00.892Z,0.70
2023-03-06T15:29:09.073Z,0.71
2023-03-06T15:33:01.872Z,0.71
2023-03-06T15:37:00.797Z,0.72
2023-03-06T15:41:01.412Z,0.71
2023-03-06T15:45:01.011Z,0.73
2023-03-06T15:49:02.780Z,0.71
2023-03-06T15:53:01.293Z,0.71
2023-03-06T15:57:01.530Z,0.71
2023-03-06T16:01:01.516Z,0.71
2023-03-06T16:05:01.479Z,0.71
2023-03-06T16:09:01.920Z,0.72
2023-03-06T16:13:01.445Z,0.71
2023-03-06T16:17:01.389Z,0.71
2023-03-06T16:21:01.380Z,0.71
2023-03-06T16:25:01.305Z,0.70
2023-03-06T16:29:01.275Z,0.70
2023-03-06T16:33:01.258Z,0.69
2023-03-06T16:37:01.213Z,0.69
2023-03-06T16:41:01.133Z,0.69
2023-03-06T16:45:01.168Z,0.69
2023-03-06T16:49:01.106Z,0.70
2023-03-06T16:53:01.096Z,0.69
2023-03-06T16:57:01.002Z,0.68
2023-03-06T17:01:01.945Z,0.70
2023-03-06T17:05:01.090Z,0.69
2023-03-06T17:09:01.191Z,0.68
2023-03-06T17:13:01.247Z,0.68
2023-03-06T17:17:01.352Z,0.69
2023-03-06T17:21:01.408Z,0.69
2023-03-06T17:25:01.477Z,0.68
2023-03-06T17:29:01.545Z,0.68
2023-03-06T17:33:01.616Z,0.68
2023-03-06T17:37:01.812Z,0.69
2023-03-06T17:41:01.817Z,0.68
2023-03-06T17:45:01.937Z,0.68
2023-03-06T17:49:02.014Z,0.67
2023-03-06T17:53:02.073Z,0.68
2023-03-06T17:57:02.194Z,0.69
2023-03-06T18:01:02.312Z,0.67
2023-03-06T18:05:02.507Z,0.68
2023-03-06T18:09:02.555Z,0.68
2023-03-06T18:13:02.695Z,0.69
2023-03-06T18:17:02.986Z,0.70
2023-03-06T18:21:03.005Z,0.71
2023-03-06T18:25:03.189Z,0.70
2023-03-06T18:29:03.459Z,0.70
2023-03-06T18:33:03.552Z,0.69
2023-03-06T18:37:03.827Z,0.71
2023-03-06T18:41:03.917Z,0.69
2023-03-06T18:45:04.437Z,0.80
2023-03-06T18:49:04.371Z,0.71
2023-03-06T18:53:04.557Z,0.68
2023-03-06T18:57:04.486Z,0.65
2023-03-06T19:01:04.532Z,0.63
2023-03-06T19:05:04.422Z,0.62
2023-03-06T19:09:04.429Z,0.60
2023-03-06T19:13:04.373Z,0.58
2023-03-06T19:17:04.380Z,0.59
2023-03-06T19:21:04.329Z,0.59
2023-03-06T19:25:04.271Z,0.59
2023-03-06T19:29:04.213Z,0.59
2023-03-06T19:33:04.144Z,0.60
2023-03-06T19:37:04.225Z,0.59
2023-03-06T19:41:04.370Z,0.58
2023-03-06T19:45:04.641Z,0.58
2023-03-06T19:49:04.890Z,0.58
2023-03-06T19:53:04.993Z,0.58
2023-03-06T19:57:05.145Z,0.59
2023-03-06T20:01:05.284Z,0.59
2023-03-06T20:05:06.925Z,0.59
2023-03-06T20:09:05.317Z,0.59
2023-03-06T20:13:05.302Z,0.59
2023-03-06T20:17:05.226Z,0.59
2023-03-06T20:21:05.208Z,0.57
2023-03-06T20:25:05.176Z,0.59
2023-03-06T20:29:05.143Z,0.59
2023-03-06T20:33:05.064Z,0.59
2023-03-06T20:37:05.049Z,0.59
2023-03-06T20:41:05.016Z,0.59
2023-03-06T20:45:04.997Z,0.59
2023-03-06T20:49:04.925Z,0.61
2023-03-06T20:53:04.933Z,0.60
2023-03-06T20:57:04.863Z,0.59
2023-03-06T21:01:04.838Z,0.60
2023-03-06T21:05:04.804Z,0.59
2023-03-06T21:09:04.763Z,0.59
2023-03-06T21:13:04.724Z,0.59
2023-03-06T21:17:04.747Z,0.59
2023-03-06T21:21:04.625Z,0.60
2023-03-06T21:25:04.615Z,0.60
2023-03-06T21:29:04.591Z,0.59
2023-03-06T21:33:04.554Z,0.59
2023-03-06T21:37:04.547Z,0.59
2023-03-06T21:41:04.454Z,0.60
2023-03-06T21:45:04.411Z,0.60
2023-03-06T21:49:04.416Z,0.58
2023-03-06T21:53:04.443Z,0.60
2023-03-06T21:57:04.306Z,0.59
2023-03-06T22:01:04.323Z,0.59
2023-03-06T22:05:04.245Z,0.59
2023-03-06T22:09:04.240Z,0.59
2023-03-06T22:13:04.153Z,0.58
2023-03-06T22:17:04.587Z,0.58
2023-03-06T22:21:04.129Z,0.58
2023-03-06T22:25:04.185Z,0.58
2023-03-06T22:29:04.005Z,0.58
2023-03-06T22:33:04.006Z,0.59
2023-03-06T22:37:03.994Z,0.58
2023-03-06T22:41:03.938Z,0.58
2023-03-06T22:45:04.007Z,0.58
2023-03-06T22:49:04.107Z,0.57
2023-03-06T22:53:04.143Z,0.57
2023-03-06T22:57:04.311Z,0.57
2023-03-06T23:01:04.363Z,0.58
2023-03-06T23:05:04.435Z,0.58
2023-03-06T23:09:04.571Z,0.58
2023-03-06T23:13:04.677Z,0.57
2023-03-06T23:17:04.847Z,0.58
2023-03-06T23:21:04.899Z,0.57
2023-03-06T23:25:04.982Z,0.56
2023-03-06T23:29:05.106Z,0.57
2023-03-06T23:33:05.233Z,0.56
2023-03-06T23:37:05.389Z,0.56
2023-03-06T23:41:05.504Z,0.57
2023-03-06T23:45:05.748Z,0.57
2023-03-06T23:49:05.836Z,0.57
2023-03-06T23:53:05.936Z,0.56
2023-03-06T23:57:06.050Z,0.55
